Helen Merril — WDF2994 — position and weather

sailwx.info

Track history (hours):
 
Tides and Currents Weather Stations Pressure Air Temp Water Temp Dewpoint Dewpoint Depression Visibility Wind Speed Wind Dir Waves Ship Positions

Helen Merril

Owner: SCF Waxler Marine LLC, St. Rose, LA. More information available from US FCC via Universal Licensing System and Coast Guard Vessel Documentation Center.

Last reported at 2015-Jul-27 11:26 UTC. Time now 2015-Jul-28 21:50 UTC.
Position N 29°30' W 094°53'.

Length 33 m; draft 3 m.

Type: Ship (hazmat cat A). MMSI: 367434260.

Date/timePositionNaut miles runAvg speedWind from/ knotsBaromVisibWave heightAir tempDewpointWater temp
2015-Jul-27 11:26N 29°30' W 094°53'6 6.5
2015-Jul-27 10:33N 29°35' W 094°56'6 6.2
2015-Jul-27 09:33N 29°41' W 094°59'5 4.7
2015-Jul-27 08:23N 29°44' W 095°04'5 4.4
2015-Jul-27 07:21N 29°44' W 095°09'4 0.2
2015-Jul-26 09:18N 29°44' W 095°14'6 7.6
2015-Jul-26 08:33N 29°44' W 095°07'4 4.2
2015-Jul-26 07:33N 29°47' W 095°04'0 0.0
2015-Jul-26 06:04N 29°47' W 095°04'2 0.2
2015-Jul-25 18:15N 29°46' W 095°06'0 0.0
2015-Jul-25 17:25N 29°46' W 095°06'0 0.0
2015-Jul-25 16:18N 29°46' W 095°06'1 0.6
2015-Jul-25 15:29N 29°46' W 095°06'2 1.1
2015-Jul-25 13:33N 29°45' W 095°04'8 8.4
2015-Jul-25 12:33N 29°38' W 094°58'  
Track history (hours):
 
Tides and Currents Weather Stations Pressure Air Temp Water Temp Dewpoint Dewpoint Depression Visibility Wind Speed Wind Dir Waves Ship Positions

Helen Merril

Owner: SCF Waxler Marine LLC, St. Rose, LA. More information available from US FCC via Universal Licensing System and Coast Guard Vessel Documentation Center.

Last reported at 2015-Jul-27 11:26 UTC. Time now 2015-Jul-28 21:50 UTC.
Position N 29°30' W 094°53'.

Length 33 m; draft 3 m.

Type: Ship (hazmat cat A). MMSI: 367434260.

Date/timePositionNaut miles runAvg speedWind from/ knotsBaromVisibWave heightAir tempDewpointWater temp
2015-Jul-27 11:26N 29°30' W 094°53'6 6.5
2015-Jul-27 10:33N 29°35' W 094°56'6 6.2
2015-Jul-27 09:33N 29°41' W 094°59'5 4.7
2015-Jul-27 08:23N 29°44' W 095°04'5 4.4
2015-Jul-27 07:21N 29°44' W 095°09'4 0.2
2015-Jul-26 09:18N 29°44' W 095°14'6 7.6
2015-Jul-26 08:33N 29°44' W 095°07'4 4.2
2015-Jul-26 07:33N 29°47' W 095°04'0 0.0
2015-Jul-26 06:04N 29°47' W 095°04'2 0.2
2015-Jul-25 18:15N 29°46' W 095°06'0 0.0
2015-Jul-25 17:25N 29°46' W 095°06'0 0.0
2015-Jul-25 16:18N 29°46' W 095°06'1 0.6
2015-Jul-25 15:29N 29°46' W 095°06'2 1.1
2015-Jul-25 13:33N 29°45' W 095°04'8 8.4
2015-Jul-25 12:33N 29°38' W 094°58'  

Dump ship's entire track history